sensor_id;sensor_type;location;lat;lon;timestamp;pressure;altitude;pressure_sealevel;temperature;humidity
49999;BME280;68071;45.062;7.356;2023-04-02T00:00:22;94125.44;;;11.38;32.53
49999;BME280;68071;45.062;7.356;2023-04-02T00:06:53;94137.00;;;11.19;33.08
49999;BME280;68071;45.062;7.356;2023-04-02T00:09:58;94141.84;;;11.15;33.40
49999;BME280;68071;45.062;7.356;2023-04-02T00:13:50;94138.22;;;11.18;32.94
49999;BME280;68071;45.062;7.356;2023-04-02T00:16:29;94151.75;;;11.00;33.03
49999;BME280;68071;45.062;7.356;2023-04-02T00:19:42;94159.78;;;10.48;34.21
49999;BME280;68071;45.062;7.356;2023-04-02T00:22:48;94169.56;;;9.79;36.43
49999;BME280;68071;45.062;7.356;2023-04-02T00:25:53;94165.16;;;9.82;37.43
49999;BME280;68071;45.062;7.356;2023-04-02T00:28:58;94183.06;;;8.93;39.88
49999;BME280;68071;45.062;7.356;2023-04-02T00:32:03;94178.53;;;8.59;39.52
49999;BME280;68071;45.062;7.356;2023-04-02T00:35:27;94188.47;;;8.25;41.51
49999;BME280;68071;45.062;7.356;2023-04-02T00:38:32;94195.41;;;7.13;46.75
49999;BME280;68071;45.062;7.356;2023-04-02T00:41:37;94200.84;;;7.55;43.57
49999;BME280;68071;45.062;7.356;2023-04-02T00:44:44;94195.94;;;7.97;41.75
49999;BME280;68071;45.062;7.356;2023-04-02T00:47:49;94208.69;;;6.80;48.42
49999;BME280;68071;45.062;7.356;2023-04-02T00:50:53;94206.00;;;7.15;44.81
49999;BME280;68071;45.062;7.356;2023-04-02T00:54:06;94206.88;;;7.74;42.76
49999;BME280;68071;45.062;7.356;2023-04-02T00:57:16;94213.25;;;7.98;41.71
49999;BME280;68071;45.062;7.356;2023-04-02T01:03:35;94220.84;;;7.55;44.20
49999;BME280;68071;45.062;7.356;2023-04-02T01:06:39;94217.47;;;9.69;36.55
49999;BME280;68071;45.062;7.356;2023-04-02T01:09:55;94220.34;;;9.82;36.96
49999;BME280;68071;45.062;7.356;2023-04-02T01:13:32;94209.84;;;9.93;36.48
49999;BME280;68071;45.062;7.356;2023-04-02T01:16:52;94214.03;;;10.02;35.77
49999;BME280;68071;45.062;7.356;2023-04-02T01:20:25;94222.00;;;10.16;35.59
49999;BME280;68071;45.062;7.356;2023-04-02T01:24:11;94220.91;;;10.30;34.47
49999;BME280;68071;45.062;7.356;2023-04-02T01:27:48;94221.75;;;10.47;34.17
49999;BME280;68071;45.062;7.356;2023-04-02T01:30:52;94230.41;;;10.66;33.57
49999;BME280;68071;45.062;7.356;2023-04-02T01:33:59;94228.38;;;10.50;34.50
49999;BME280;68071;45.062;7.356;2023-04-02T01:43:50;94237.28;;;10.57;33.64
49999;BME280;68071;45.062;7.356;2023-04-02T01:46:56;94220.81;;;10.54;34.07
49999;BME280;68071;45.062;7.356;2023-04-02T01:53:18;94221.75;;;10.64;34.32
49999;BME280;68071;45.062;7.356;2023-04-02T01:56:25;94220.88;;;10.50;34.79
49999;BME280;68071;45.062;7.356;2023-04-02T01:59:30;94225.28;;;10.11;37.52
49999;BME280;68071;45.062;7.356;2023-04-02T02:02:39;94224.84;;;9.35;37.34
49999;BME280;68071;45.062;7.356;2023-04-02T02:05:45;94234.50;;;9.23;37.98
49999;BME280;68071;45.062;7.356;2023-04-02T02:09:02;94232.91;;;8.78;39.07
49999;BME280;68071;45.062;7.356;2023-04-02T02:12:11;94240.47;;;9.62;35.71
49999;BME280;68071;45.062;7.356;2023-04-02T02:15:18;94245.34;;;9.75;35.43
49999;BME280;68071;45.062;7.356;2023-04-02T02:18:23;94247.56;;;9.19;40.20
49999;BME280;68071;45.062;7.356;2023-04-02T02:21:29;94250.84;;;9.34;38.89
49999;BME280;68071;45.062;7.356;2023-04-02T02:24:37;94249.66;;;9.12;39.86
49999;BME280;68071;45.062;7.356;2023-04-02T02:31:46;94274.13;;;7.31;49.35
49999;BME280;68071;45.062;7.356;2023-04-02T02:35:01;94278.44;;;8.01;41.87
49999;BME280;68071;45.062;7.356;2023-04-02T02:44:57;94297.06;;;7.55;46.07
49999;BME280;68071;45.062;7.356;2023-04-02T02:48:08;94306.88;;;7.18;51.59
49999;BME280;68071;45.062;7.356;2023-04-02T02:51:22;94300.59;;;7.90;46.63
49999;BME280;68071;45.062;7.356;2023-04-02T02:54:30;94301.03;;;8.16;44.31
49999;BME280;68071;45.062;7.356;2023-04-02T02:57:40;94303.28;;;9.31;39.20
49999;BME280;68071;45.062;7.356;2023-04-02T03:00:45;94305.59;;;8.30;42.43
49999;BME280;68071;45.062;7.356;2023-04-02T03:03:51;94303.03;;;8.15;46.27
49999;BME280;68071;45.062;7.356;2023-04-02T03:06:57;94304.25;;;9.20;39.88
49999;BME280;68071;45.062;7.356;2023-04-02T03:13:23;94319.50;;;9.73;38.79
49999;BME280;68071;45.062;7.356;2023-04-02T03:16:35;94311.47;;;9.58;38.85
49999;BME280;68071;45.062;7.356;2023-04-02T03:20:01;94315.88;;;9.32;41.68
49999;BME280;68071;45.062;7.356;2023-04-02T03:24:02;94311.19;;;9.52;40.80
49999;BME280;68071;45.062;7.356;2023-04-02T03:27:14;94320.34;;;9.90;37.59
49999;BME280;68071;45.062;7.356;2023-04-02T03:30:48;94318.53;;;9.15;41.15
49999;BME280;68071;45.062;7.356;2023-04-02T03:33:57;94319.78;;;9.34;41.17
49999;BME280;68071;45.062;7.356;2023-04-02T03:37:20;94315.84;;;9.35;40.74
49999;BME280;68071;45.062;7.356;2023-04-02T03:40:41;94315.41;;;10.01;37.51
49999;BME280;68071;45.062;7.356;2023-04-02T03:43:52;94318.03;;;9.88;41.17
49999;BME280;68071;45.062;7.356;2023-04-02T03:47:04;94324.00;;;8.91;46.62
49999;BME280;68071;45.062;7.356;2023-04-02T03:50:22;94327.56;;;8.65;44.06
49999;BME280;68071;45.062;7.356;2023-04-02T03:53:31;94335.50;;;9.14;41.26
49999;BME280;68071;45.062;7.356;2023-04-02T03:56:36;94352.75;;;8.90;44.41
49999;BME280;68071;45.062;7.356;2023-04-02T03:59:56;94344.31;;;9.01;44.03
49999;BME280;68071;45.062;7.356;2023-04-02T04:03:41;94352.53;;;8.81;47.61
49999;BME280;68071;45.062;7.356;2023-04-02T04:06:49;94348.34;;;8.97;44.68
49999;BME280;68071;45.062;7.356;2023-04-02T04:09:56;94351.47;;;8.40;45.51
49999;BME280;68071;45.062;7.356;2023-04-02T04:13:05;94352.03;;;8.28;47.40
49999;BME280;68071;45.062;7.356;2023-04-02T04:16:19;94355.28;;;8.19;47.53
49999;BME280;68071;45.062;7.356;2023-04-02T04:22:50;94353.34;;;8.78;42.94
49999;BME280;68071;45.062;7.356;2023-04-02T04:30:13;94361.84;;;8.29;43.46
49999;BME280;68071;45.062;7.356;2023-04-02T04:33:25;94361.56;;;7.47;47.36
49999;BME280;68071;45.062;7.356;2023-04-02T04:36:43;94361.63;;;7.39;47.64
49999;BME280;68071;45.062;7.356;2023-04-02T04:40:01;94374.88;;;7.48;47.42
49999;BME280;68071;45.062;7.356;2023-04-02T04:43:16;94367.28;;;7.21;47.60
49999;BME280;68071;45.062;7.356;2023-04-02T04:46:31;94378.19;;;7.32;46.31
49999;BME280;68071;45.062;7.356;2023-04-02T04:49:51;94386.03;;;6.81;48.36
49999;BME280;68071;45.062;7.356;2023-04-02T04:53:06;94389.19;;;5.83;57.40
49999;BME280;68071;45.062;7.356;2023-04-02T04:56:11;94397.41;;;5.83;54.75
49999;BME280;68071;45.062;7.356;2023-04-02T04:59:21;94386.06;;;5.74;58.98
49999;BME280;68071;45.062;7.356;2023-04-02T05:02:37;94391.50;;;6.07;50.46
49999;BME280;68071;45.062;7.356;2023-04-02T05:05:44;94380.66;;;6.59;48.26
49999;BME280;68071;45.062;7.356;2023-04-02T05:08:53;94388.09;;;7.19;45.43
49999;BME280;68071;45.062;7.356;2023-04-02T05:19:02;94401.94;;;7.04;47.34
49999;BME280;68071;45.062;7.356;2023-04-02T05:22:28;94405.25;;;9.11;38.33
49999;BME280;68071;45.062;7.356;2023-04-02T05:25:37;94409.03;;;9.20;37.63
49999;BME280;68071;45.062;7.356;2023-04-02T05:29:13;94411.13;;;8.16;41.11
49999;BME280;68071;45.062;7.356;2023-04-02T05:32:27;94411.84;;;9.17;37.94
49999;BME280;68071;45.062;7.356;2023-04-02T05:35:34;94414.97;;;9.43;36.84
49999;BME280;68071;45.062;7.356;2023-04-02T05:38:44;94416.63;;;9.64;35.87
49999;BME280;68071;45.062;7.356;2023-04-02T05:42:01;94415.34;;;9.92;35.26
49999;BME280;68071;45.062;7.356;2023-04-02T05:48:35;94424.41;;;9.69;37.72
49999;BME280;68071;45.062;7.356;2023-04-02T05:51:43;94435.41;;;10.17;34.77
49999;BME280;68071;45.062;7.356;2023-04-02T05:54:54;94424.97;;;10.48;33.43
49999;BME280;68071;45.062;7.356;2023-04-02T05:58:05;94434.00;;;10.28;34.29
49999;BME280;68071;45.062;7.356;2023-04-02T06:01:29;94428.94;;;10.47;33.93
49999;BME280;68071;45.062;7.356;2023-04-02T06:04:45;94436.31;;;10.54;34.34
49999;BME280;68071;45.062;7.356;2023-04-02T06:08:02;94449.41;;;10.50;34.00
49999;BME280;68071;45.062;7.356;2023-04-02T06:11:12;94440.97;;;10.77;32.59
49999;BME280;68071;45.062;7.356;2023-04-02T06:14:20;94439.91;;;10.71;33.46
49999;BME280;68071;45.062;7.356;2023-04-02T06:17:26;94440.59;;;10.75;33.51
49999;BME280;68071;45.062;7.356;2023-04-02T06:20:30;94449.16;;;10.81;32.57
49999;BME280;68071;45.062;7.356;2023-04-02T06:23:47;94444.69;;;10.87;32.48
49999;BME280;68071;45.062;7.356;2023-04-02T06:26:58;94448.81;;;10.99;32.76
49999;BME280;68071;45.062;7.356;2023-04-02T06:30:05;94450.84;;;10.95;33.36
49999;BME280;68071;45.062;7.356;2023-04-02T06:33:11;94459.50;;;10.97;33.15
49999;BME280;68071;45.062;7.356;2023-04-02T06:36:22;94464.69;;;10.95;33.89
49999;BME280;68071;45.062;7.356;2023-04-02T06:39:26;94478.28;;;11.05;31.95
49999;BME280;68071;45.062;7.356;2023-04-02T06:42:35;94474.22;;;11.10;32.61
49999;BME280;68071;45.062;7.356;2023-04-02T06:45:50;94465.66;;;11.04;33.72
49999;BME280;68071;45.062;7.356;2023-04-02T06:49:41;94462.69;;;11.32;33.38
49999;BME280;68071;45.062;7.356;2023-04-02T06:52:52;94470.31;;;11.44;32.05
49999;BME280;68071;45.062;7.356;2023-04-02T06:56:05;94477.06;;;11.43;31.96
49999;BME280;68071;45.062;7.356;2023-04-02T06:59:15;94474.84;;;11.55;31.42
49999;BME280;68071;45.062;7.356;2023-04-02T07:02:28;94475.78;;;11.64;31.82
49999;BME280;68071;45.062;7.356;2023-04-02T07:05:36;94481.69;;;11.83;30.85
49999;BME280;68071;45.062;7.356;2023-04-02T07:08:39;94488.94;;;11.93;31.53
49999;BME280;68071;45.062;7.356;2023-04-02T07:11:45;94485.13;;;11.87;31.11
49999;BME280;68071;45.062;7.356;2023-04-02T07:14:50;94489.72;;;11.94;31.07
49999;BME280;68071;45.062;7.356;2023-04-02T07:17:54;94482.81;;;12.19;31.47
49999;BME280;68071;45.062;7.356;2023-04-02T07:21:02;94476.38;;;12.38;30.84
49999;BME280;68071;45.062;7.356;2023-04-02T07:24:07;94493.16;;;12.31;30.48
49999;BME280;68071;45.062;7.356;2023-04-02T07:27:12;94495.25;;;12.27;28.86
49999;BME280;68071;45.062;7.356;2023-04-02T07:30:16;94499.59;;;12.28;29.80
49999;BME280;68071;45.062;7.356;2023-04-02T07:33:23;94496.44;;;12.43;29.70
49999;BME280;68071;45.062;7.356;2023-04-02T07:36:28;94494.50;;;12.56;30.53
49999;BME280;68071;45.062;7.356;2023-04-02T07:39:34;94493.53;;;12.63;29.44
49999;BME280;68071;45.062;7.356;2023-04-02T07:42:38;94501.84;;;12.92;29.66
49999;BME280;68071;45.062;7.356;2023-04-02T07:45:42;94512.41;;;13.10;30.70
49999;BME280;68071;45.062;7.356;2023-04-02T07:48:46;94501.22;;;12.71;29.85
49999;BME280;68071;45.062;7.356;2023-04-02T07:51:50;94508.56;;;13.21;28.23
49999;BME280;68071;45.062;7.356;2023-04-02T07:54:54;94523.38;;;13.43;29.92
49999;BME280;68071;45.062;7.356;2023-04-02T07:57:59;94526.44;;;13.20;28.84
49999;BME280;68071;45.062;7.356;2023-04-02T08:01:03;94520.22;;;12.86;28.25
49999;BME280;68071;45.062;7.356;2023-04-02T08:04:15;94521.34;;;13.31;30.99
49999;BME280;68071;45.062;7.356;2023-04-02T08:07:20;94516.84;;;13.76;28.09
49999;BME280;68071;45.062;7.356;2023-04-02T08:10:24;94514.41;;;13.78;30.89
49999;BME280;68071;45.062;7.356;2023-04-02T08:13:28;94522.84;;;13.87;28.67
49999;BME280;68071;45.062;7.356;2023-04-02T08:16:50;94522.91;;;13.32;27.37
49999;BME280;68071;45.062;7.356;2023-04-02T08:19:54;94528.00;;;13.34;28.90
49999;BME280;68071;45.062;7.356;2023-04-02T08:22:58;94523.22;;;13.21;26.67
49999;BME280;68071;45.062;7.356;2023-04-02T08:26:04;94540.94;;;13.40;29.17
49999;BME280;68071;45.062;7.356;2023-04-02T08:29:08;94537.34;;;13.40;28.54
49999;BME280;68071;45.062;7.356;2023-04-02T08:32:13;94535.28;;;13.57;27.73
49999;BME280;68071;45.062;7.356;2023-04-02T08:35:21;94537.38;;;13.53;29.35
49999;BME280;68071;45.062;7.356;2023-04-02T08:38:25;94543.28;;;13.94;31.00
49999;BME280;68071;45.062;7.356;2023-04-02T08:41:36;94537.63;;;13.97;28.07
49999;BME280;68071;45.062;7.356;2023-04-02T08:44:53;94540.06;;;13.95;28.76
49999;BME280;68071;45.062;7.356;2023-04-02T08:48:04;94539.59;;;14.10;28.58
49999;BME280;68071;45.062;7.356;2023-04-02T08:51:26;94547.50;;;14.11;29.01
49999;BME280;68071;45.062;7.356;2023-04-02T08:54:34;94544.81;;;14.20;28.64
49999;BME280;68071;45.062;7.356;2023-04-02T08:57:47;94550.47;;;14.30;28.32
49999;BME280;68071;45.062;7.356;2023-04-02T09:00:55;94556.16;;;14.00;29.50
49999;BME280;68071;45.062;7.356;2023-04-02T09:04:00;94545.25;;;14.19;28.43
49999;BME280;68071;45.062;7.356;2023-04-02T09:07:10;94553.16;;;14.20;28.91
49999;BME280;68071;45.062;7.356;2023-04-02T09:10:17;94546.03;;;14.32;30.14
49999;BME280;68071;45.062;7.356;2023-04-02T09:13:29;94552.38;;;14.20;28.59
49999;BME280;68071;45.062;7.356;2023-04-02T09:16:54;94554.78;;;14.44;29.14
49999;BME280;68071;45.062;7.356;2023-04-02T09:20:02;94561.41;;;14.59;30.47
49999;BME280;68071;45.062;7.356;2023-04-02T09:23:20;94561.38;;;14.37;28.15
49999;BME280;68071;45.062;7.356;2023-04-02T09:26:31;94571.78;;;14.59;27.74
49999;BME280;68071;45.062;7.356;2023-04-02T09:29:46;94573.47;;;14.43;29.08
49999;BME280;68071;45.062;7.356;2023-04-02T09:32:55;94569.22;;;14.51;28.05
49999;BME280;68071;45.062;7.356;2023-04-02T09:36:00;94576.00;;;14.50;31.54
49999;BME280;68071;45.062;7.356;2023-04-02T09:39:19;94570.22;;;14.71;28.69
49999;BME280;68071;45.062;7.356;2023-04-02T09:42:32;94577.00;;;14.70;30.45
49999;BME280;68071;45.062;7.356;2023-04-02T09:45:38;94580.94;;;14.46;27.38
49999;BME280;68071;45.062;7.356;2023-04-02T09:48:50;94582.63;;;14.66;29.56
49999;BME280;68071;45.062;7.356;2023-04-02T09:58:18;94594.69;;;14.63;25.43
49999;BME280;68071;45.062;7.356;2023-04-02T10:01:36;94583.53;;;14.76;28.19
49999;BME280;68071;45.062;7.356;2023-04-02T10:04:47;94586.50;;;15.39;34.63
49999;BME280;68071;45.062;7.356;2023-04-02T10:07:53;94584.88;;;15.51;31.82
49999;BME280;68071;45.062;7.356;2023-04-02T10:11:32;94586.50;;;15.61;26.20
49999;BME280;68071;45.062;7.356;2023-04-02T10:14:39;94582.50;;;15.94;28.55
49999;BME280;68071;45.062;7.356;2023-04-02T10:17:51;94579.97;;;15.33;31.07
49999;BME280;68071;45.062;7.356;2023-04-02T10:20:59;94582.09;;;15.06;28.60
49999;BME280;68071;45.062;7.356;2023-04-02T10:24:11;94581.59;;;14.86;27.85
49999;BME280;68071;45.062;7.356;2023-04-02T10:31:12;94605.59;;;15.05;28.59
49999;BME280;68071;45.062;7.356;2023-04-02T10:34:45;94602.69;;;15.09;27.10
49999;BME280;68071;45.062;7.356;2023-04-02T10:38:40;94599.44;;;15.10;28.52
49999;BME280;68071;45.062;7.356;2023-04-02T10:51:43;94591.75;;;15.37;27.62
49999;BME280;68071;45.062;7.356;2023-04-02T10:54:50;94598.69;;;15.32;29.41
49999;BME280;68071;45.062;7.356;2023-04-02T10:57:58;94600.50;;;15.26;29.70
49999;BME280;68071;45.062;7.356;2023-04-02T11:01:08;94604.72;;;14.95;28.51
49999;BME280;68071;45.062;7.356;2023-04-02T11:04:27;94596.53;;;15.14;27.05
49999;BME280;68071;45.062;7.356;2023-04-02T11:07:48;94585.19;;;15.75;28.85
49999;BME280;68071;45.062;7.356;2023-04-02T11:10:58;94594.13;;;15.92;28.78
49999;BME280;68071;45.062;7.356;2023-04-02T11:14:23;94583.53;;;15.33;26.93
49999;BME280;68071;45.062;7.356;2023-04-02T11:17:28;94596.66;;;15.33;28.45
49999;BME280;68071;45.062;7.356;2023-04-02T11:23:56;94604.97;;;16.90;26.95
49999;BME280;68071;45.062;7.356;2023-04-02T11:40:45;94612.47;;;16.43;29.27
49999;BME280;68071;45.062;7.356;2023-04-02T11:46:41;94603.03;;;16.59;31.26
49999;BME280;68071;45.062;7.356;2023-04-02T12:02:55;94603.97;;;16.66;28.63
49999;BME280;68071;45.062;7.356;2023-04-02T12:09:42;94608.09;;;17.67;28.07
49999;BME280;68071;45.062;7.356;2023-04-02T12:12:48;94600.66;;;16.39;28.42
49999;BME280;68071;45.062;7.356;2023-04-02T12:15:56;94602.53;;;16.01;31.05
49999;BME280;68071;45.062;7.356;2023-04-02T12:19:02;94602.91;;;16.72;29.73
49999;BME280;68071;45.062;7.356;2023-04-02T12:22:20;94600.94;;;16.32;32.33
49999;BME280;68071;45.062;7.356;2023-04-02T12:25:34;94597.81;;;16.21;30.56
49999;BME280;68071;45.062;7.356;2023-04-02T12:28:42;94606.66;;;16.78;29.41
49999;BME280;68071;45.062;7.356;2023-04-02T12:31:49;94602.06;;;17.13;30.14
49999;BME280;68071;45.062;7.356;2023-04-02T12:34:55;94602.00;;;17.68;28.54
49999;BME280;68071;45.062;7.356;2023-04-02T12:38:00;94596.00;;;17.42;29.94
49999;BME280;68071;45.062;7.356;2023-04-02T12:41:21;94599.03;;;18.00;29.64
49999;BME280;68071;45.062;7.356;2023-04-02T12:44:29;94602.97;;;16.31;29.23
49999;BME280;68071;45.062;7.356;2023-04-02T12:47:33;94602.91;;;16.72;30.69
49999;BME280;68071;45.062;7.356;2023-04-02T12:50:38;94610.81;;;16.74;34.10
49999;BME280;68071;45.062;7.356;2023-04-02T12:53:49;94604.69;;;17.26;28.57
49999;BME280;68071;45.062;7.356;2023-04-02T12:57:21;94605.28;;;16.92;29.10
49999;BME280;68071;45.062;7.356;2023-04-02T13:00:28;94596.69;;;16.68;29.54
49999;BME280;68071;45.062;7.356;2023-04-02T13:03:32;94592.75;;;16.97;29.76
49999;BME280;68071;45.062;7.356;2023-04-02T13:06:38;94591.13;;;16.68;28.09
49999;BME280;68071;45.062;7.356;2023-04-02T13:09:45;94588.75;;;16.48;28.65
49999;BME280;68071;45.062;7.356;2023-04-02T13:13:01;94584.69;;;16.40;28.62
49999;BME280;68071;45.062;7.356;2023-04-02T13:16:23;94584.25;;;16.41;29.72
49999;BME280;68071;45.062;7.356;2023-04-02T13:19:34;94582.22;;;17.01;29.61
49999;BME280;68071;45.062;7.356;2023-04-02T13:22:38;94578.59;;;17.57;29.29
49999;BME280;68071;45.062;7.356;2023-04-02T13:25:42;94569.56;;;16.59;28.03
49999;BME280;68071;45.062;7.356;2023-04-02T13:29:02;94570.53;;;16.93;29.08
49999;BME280;68071;45.062;7.356;2023-04-02T13:32:11;94572.22;;;16.72;29.70
49999;BME280;68071;45.062;7.356;2023-04-02T13:35:16;94564.47;;;16.76;31.26
49999;BME280;68071;45.062;7.356;2023-04-02T13:38:20;94562.13;;;16.75;28.55
49999;BME280;68071;45.062;7.356;2023-04-02T13:41:29;94563.72;;;16.85;28.79
49999;BME280;68071;45.062;7.356;2023-04-02T13:44:34;94563.66;;;16.48;29.48
49999;BME280;68071;45.062;7.356;2023-04-02T13:47:40;94556.25;;;16.73;31.27
49999;BME280;68071;45.062;7.356;2023-04-02T13:50:44;94551.97;;;17.80;28.10
49999;BME280;68071;45.062;7.356;2023-04-02T13:53:54;94559.97;;;18.15;28.96
49999;BME280;68071;45.062;7.356;2023-04-02T13:56:59;94551.44;;;18.09;26.61
49999;BME280;68071;45.062;7.356;2023-04-02T14:00:04;94562.41;;;17.79;27.51
49999;BME280;68071;45.062;7.356;2023-04-02T14:03:15;94567.00;;;17.21;28.57
49999;BME280;68071;45.062;7.356;2023-04-02T14:06:49;94560.03;;;17.07;30.80
49999;BME280;68071;45.062;7.356;2023-04-02T14:20:45;94549.75;;;17.32;27.94
49999;BME280;68071;45.062;7.356;2023-04-02T14:31:20;94546.53;;;17.86;27.46
49999;BME280;68071;45.062;7.356;2023-04-02T14:34:39;94545.72;;;17.94;27.60
49999;BME280;68071;45.062;7.356;2023-04-02T14:44:37;94559.72;;;16.27;29.34
49999;BME280;68071;45.062;7.356;2023-04-02T14:47:49;94552.84;;;16.69;29.15
49999;BME280;68071;45.062;7.356;2023-04-02T14:51:04;94551.72;;;16.66;28.36
49999;BME280;68071;45.062;7.356;2023-04-02T14:57:42;94546.81;;;17.88;26.91
49999;BME280;68071;45.062;7.356;2023-04-02T15:01:02;94553.19;;;17.08;26.35
49999;BME280;68071;45.062;7.356;2023-04-02T15:04:16;94554.63;;;17.74;28.61
49999;BME280;68071;45.062;7.356;2023-04-02T15:07:23;94546.66;;;17.91;28.98
49999;BME280;68071;45.062;7.356;2023-04-02T15:10:40;94550.84;;;18.87;27.52
49999;BME280;68071;45.062;7.356;2023-04-02T15:17:10;94543.94;;;20.12;23.74
49999;BME280;68071;45.062;7.356;2023-04-02T15:20:16;94551.66;;;18.30;24.43
49999;BME280;68071;45.062;7.356;2023-04-02T15:29:43;94543.59;;;18.81;25.43
49999;BME280;68071;45.062;7.356;2023-04-02T15:32:53;94543.56;;;17.89;28.77
49999;BME280;68071;45.062;7.356;2023-04-02T15:42:45;94557.44;;;18.51;26.21
49999;BME280;68071;45.062;7.356;2023-04-02T15:46:18;94552.41;;;17.88;27.39
49999;BME280;68071;45.062;7.356;2023-04-02T15:56:18;94560.28;;;19.69;24.86
49999;BME280;68071;45.062;7.356;2023-04-02T16:09:25;94563.56;;;17.97;26.08
49999;BME280;68071;45.062;7.356;2023-04-02T16:12:32;94573.78;;;16.83;29.32
49999;BME280;68071;45.062;7.356;2023-04-02T16:15:42;94579.63;;;16.57;31.79
49999;BME280;68071;45.062;7.356;2023-04-02T16:18:54;94577.13;;;16.49;28.42
49999;BME280;68071;45.062;7.356;2023-04-02T16:22:23;94583.75;;;15.93;29.61
49999;BME280;68071;45.062;7.356;2023-04-02T16:25:40;94592.72;;;15.87;30.43
49999;BME280;68071;45.062;7.356;2023-04-02T16:36:15;94610.41;;;15.49;31.59
49999;BME280;68071;45.062;7.356;2023-04-02T16:46:32;94629.22;;;15.01;36.60
49999;BME280;68071;45.062;7.356;2023-04-02T16:56:34;94647.66;;;14.20;32.56
49999;BME280;68071;45.062;7.356;2023-04-02T17:09:50;94670.16;;;13.84;34.86
49999;BME280;68071;45.062;7.356;2023-04-02T17:13:23;94672.97;;;13.97;31.88
49999;BME280;68071;45.062;7.356;2023-04-02T17:16:41;94676.22;;;14.08;34.91
49999;BME280;68071;45.062;7.356;2023-04-02T17:19:46;94682.78;;;14.14;33.04
49999;BME280;68071;45.062;7.356;2023-04-02T17:22:54;94686.00;;;14.13;32.24
49999;BME280;68071;45.062;7.356;2023-04-02T17:26:02;94692.25;;;14.17;31.71
49999;BME280;68071;45.062;7.356;2023-04-02T17:29:14;94711.28;;;13.89;32.77
49999;BME280;68071;45.062;7.356;2023-04-02T17:32:28;94715.38;;;13.71;33.83
49999;BME280;68071;45.062;7.356;2023-04-02T17:38:49;94725.59;;;13.45;34.76
49999;BME280;68071;45.062;7.356;2023-04-02T17:48:43;94733.34;;;13.04;36.29
49999;BME280;68071;45.062;7.356;2023-04-02T17:52:02;94741.75;;;13.00;35.78
49999;BME280;68071;45.062;7.356;2023-04-02T17:55:32;94751.88;;;12.91;36.53
49999;BME280;68071;45.062;7.356;2023-04-02T17:58:49;94744.38;;;12.91;36.31
49999;BME280;68071;45.062;7.356;2023-04-02T18:09:15;94747.38;;;12.80;37.09
49999;BME280;68071;45.062;7.356;2023-04-02T18:22:11;94759.59;;;12.66;37.44
49999;BME280;68071;45.062;7.356;2023-04-02T18:25:54;94761.31;;;12.77;37.29
49999;BME280;68071;45.062;7.356;2023-04-02T18:39:27;94782.81;;;12.56;38.12
49999;BME280;68071;45.062;7.356;2023-04-02T18:42:55;94783.78;;;12.66;38.11
49999;BME280;68071;45.062;7.356;2023-04-02T18:47:05;94784.75;;;12.76;37.05
49999;BME280;68071;45.062;7.356;2023-04-02T18:49:46;94792.88;;;12.83;36.24
49999;BME280;68071;45.062;7.356;2023-04-02T18:52:52;94796.09;;;12.98;36.24
49999;BME280;68071;45.062;7.356;2023-04-02T18:56:04;94816.06;;;12.56;39.82
49999;BME280;68071;45.062;7.356;2023-04-02T19:02:43;94825.91;;;12.20;43.12
49999;BME280;68071;45.062;7.356;2023-04-02T19:06:10;94831.31;;;11.84;41.88
49999;BME280;68071;45.062;7.356;2023-04-02T19:09:26;94828.88;;;11.65;42.89
49999;BME280;68071;45.062;7.356;2023-04-02T19:12:34;94836.19;;;12.00;43.84
49999;BME280;68071;45.062;7.356;2023-04-02T19:16:04;94845.78;;;11.47;44.70
49999;BME280;68071;45.062;7.356;2023-04-02T19:19:56;94849.34;;;11.72;42.68
49999;BME280;68071;45.062;7.356;2023-04-02T19:26:52;94859.28;;;11.22;46.73
49999;BME280;68071;45.062;7.356;2023-04-02T19:33:38;94867.72;;;11.62;41.08
49999;BME280;68071;45.062;7.356;2023-04-02T19:36:59;94858.38;;;12.77;33.79
49999;BME280;68071;45.062;7.356;2023-04-02T19:40:17;94860.00;;;12.37;36.72
49999;BME280;68071;45.062;7.356;2023-04-02T19:43:24;94854.81;;;11.99;36.90
49999;BME280;68071;45.062;7.356;2023-04-02T19:46:28;94860.28;;;12.03;36.72
49999;BME280;68071;45.062;7.356;2023-04-02T19:49:33;94876.41;;;11.84;36.94
49999;BME280;68071;45.062;7.356;2023-04-02T19:52:37;94868.38;;;11.70;37.88
49999;BME280;68071;45.062;7.356;2023-04-02T19:55:43;94882.69;;;11.88;35.79
49999;BME280;68071;45.062;7.356;2023-04-02T19:58:47;94873.16;;;11.18;39.16
49999;BME280;68071;45.062;7.356;2023-04-02T20:01:51;94882.31;;;11.62;36.45
49999;BME280;68071;45.062;7.356;2023-04-02T20:04:55;94875.69;;;11.56;36.78
49999;BME280;68071;45.062;7.356;2023-04-02T20:08:00;94876.56;;;11.02;40.38
49999;BME280;68071;45.062;7.356;2023-04-02T20:11:04;94885.38;;;9.51;47.36
49999;BME280;68071;45.062;7.356;2023-04-02T20:14:09;94882.75;;;10.82;40.10
49999;BME280;68071;45.062;7.356;2023-04-02T20:17:13;94886.69;;;8.79;48.04
49999;BME280;68071;45.062;7.356;2023-04-02T20:20:18;94891.50;;;8.64;53.51
49999;BME280;68071;45.062;7.356;2023-04-02T20:23:23;94896.16;;;8.71;48.63
49999;BME280;68071;45.062;7.356;2023-04-02T20:26:27;94889.81;;;10.87;37.94
49999;BME280;68071;45.062;7.356;2023-04-02T20:29:32;94898.06;;;11.42;37.03
49999;BME280;68071;45.062;7.356;2023-04-02T20:32:36;94894.53;;;11.65;35.50
49999;BME280;68071;45.062;7.356;2023-04-02T20:35:40;94898.91;;;11.39;36.64
49999;BME280;68071;45.062;7.356;2023-04-02T20:38:44;94906.88;;;12.08;33.72
49999;BME280;68071;45.062;7.356;2023-04-02T20:41:48;94911.06;;;11.92;34.64
49999;BME280;68071;45.062;7.356;2023-04-02T20:44:52;94912.97;;;11.75;34.82
49999;BME280;68071;45.062;7.356;2023-04-02T20:47:56;94907.63;;;11.85;34.11
49999;BME280;68071;45.062;7.356;2023-04-02T20:51:02;94915.91;;;11.64;34.97
49999;BME280;68071;45.062;7.356;2023-04-02T20:54:07;94917.59;;;11.82;34.58
49999;BME280;68071;45.062;7.356;2023-04-02T20:57:11;94932.38;;;11.95;33.44
49999;BME280;68071;45.062;7.356;2023-04-02T21:00:16;94915.28;;;12.24;32.84
49999;BME280;68071;45.062;7.356;2023-04-02T21:03:20;94920.00;;;12.04;33.10